sensor_id;sensor_type;location;lat;lon;timestamp;temperature;humidity
15105;DHT22;7653;48.994;9.212;2022-12-18T00:01:46;-9.90;49.40
15105;DHT22;7653;48.994;9.212;2022-12-18T00:04:23;-9.80;49.90
15105;DHT22;7653;48.994;9.212;2022-12-18T00:06:49;-9.70;49.50
15105;DHT22;7653;48.994;9.212;2022-12-18T00:09:16;-9.90;48.70
15105;DHT22;7653;48.994;9.212;2022-12-18T00:11:42;-9.90;48.50
15105;DHT22;7653;48.994;9.212;2022-12-18T00:14:11;-9.80;48.70
15105;DHT22;7653;48.994;9.212;2022-12-18T00:16:37;-9.80;48.40
15105;DHT22;7653;48.994;9.212;2022-12-18T00:19:04;-9.80;48.50
15105;DHT22;7653;48.994;9.212;2022-12-18T00:21:31;-9.90;48.70
15105;DHT22;7653;48.994;9.212;2022-12-18T00:23:57;-9.90;49.60
15105;DHT22;7653;48.994;9.212;2022-12-18T00:26:32;-9.80;49.60
15105;DHT22;7653;48.994;9.212;2022-12-18T00:29:10;-9.90;49.10
15105;DHT22;7653;48.994;9.212;2022-12-18T00:31:37;-9.80;49.40
15105;DHT22;7653;48.994;9.212;2022-12-18T00:34:03;-9.70;49.60
15105;DHT22;7653;48.994;9.212;2022-12-18T00:36:33;-9.70;49.30
15105;DHT22;7653;48.994;9.212;2022-12-18T00:39:01;-9.70;49.00
15105;DHT22;7653;48.994;9.212;2022-12-18T00:41:28;-9.70;49.20
15105;DHT22;7653;48.994;9.212;2022-12-18T00:44:14;-9.80;48.30
15105;DHT22;7653;48.994;9.212;2022-12-18T00:46:41;-9.90;48.50
15105;DHT22;7653;48.994;9.212;2022-12-18T00:49:07;-10.00;48.10
15105;DHT22;7653;48.994;9.212;2022-12-18T00:51:33;-10.00;48.40
15105;DHT22;7653;48.994;9.212;2022-12-18T00:53:59;-9.90;48.80
15105;DHT22;7653;48.994;9.212;2022-12-18T00:56:24;-9.90;48.70
15105;DHT22;7653;48.994;9.212;2022-12-18T00:58:50;-10.00;48.00
15105;DHT22;7653;48.994;9.212;2022-12-18T01:01:16;-10.00;48.30
15105;DHT22;7653;48.994;9.212;2022-12-18T01:03:42;-9.90;48.10
15105;DHT22;7653;48.994;9.212;2022-12-18T01:06:10;-10.20;47.30
15105;DHT22;7653;48.994;9.212;2022-12-18T01:08:37;-10.40;47.30
15105;DHT22;7653;48.994;9.212;2022-12-18T01:11:11;-10.40;47.60
15105;DHT22;7653;48.994;9.212;2022-12-18T01:13:38;-10.30;48.00
15105;DHT22;7653;48.994;9.212;2022-12-18T01:16:03;-10.20;49.20
15105;DHT22;7653;48.994;9.212;2022-12-18T01:18:29;-10.00;49.10
15105;DHT22;7653;48.994;9.212;2022-12-18T01:20:55;-10.00;48.70
15105;DHT22;7653;48.994;9.212;2022-12-18T01:23:20;-10.00;47.80
15105;DHT22;7653;48.994;9.212;2022-12-18T01:25:46;-10.00;46.80
15105;DHT22;7653;48.994;9.212;2022-12-18T01:28:11;-10.20;46.40
15105;DHT22;7653;48.994;9.212;2022-12-18T01:30:37;-10.20;47.10
15105;DHT22;7653;48.994;9.212;2022-12-18T01:33:05;-10.10;47.70
15105;DHT22;7653;48.994;9.212;2022-12-18T01:35:31;-10.10;47.40
15105;DHT22;7653;48.994;9.212;2022-12-18T01:37:56;-10.00;47.60
15105;DHT22;7653;48.994;9.212;2022-12-18T01:40:22;-10.00;47.40
15105;DHT22;7653;48.994;9.212;2022-12-18T01:42:52;-10.00;47.50
15105;DHT22;7653;48.994;9.212;2022-12-18T01:47:56;-10.00;47.10
15105;DHT22;7653;48.994;9.212;2022-12-18T01:50:40;-9.90;47.30
15105;DHT22;7653;48.994;9.212;2022-12-18T01:53:10;-10.10;46.30
15105;DHT22;7653;48.994;9.212;2022-12-18T01:55:52;-10.30;46.80
15105;DHT22;7653;48.994;9.212;2022-12-18T01:58:19;-10.30;47.40
15105;DHT22;7653;48.994;9.212;2022-12-18T02:00:47;-10.10;48.20
15105;DHT22;7653;48.994;9.212;2022-12-18T02:03:13;-10.00;48.30
15105;DHT22;7653;48.994;9.212;2022-12-18T02:11:11;-10.20;48.10
15105;DHT22;7653;48.994;9.212;2022-12-18T02:16:51;-10.10;48.30
15105;DHT22;7653;48.994;9.212;2022-12-18T02:27:35;-10.10;47.90
15105;DHT22;7653;48.994;9.212;2022-12-18T02:30:04;-10.00;48.00
15105;DHT22;7653;48.994;9.212;2022-12-18T02:32:34;-10.00;47.40
15105;DHT22;7653;48.994;9.212;2022-12-18T02:35:02;-10.10;47.30
15105;DHT22;7653;48.994;9.212;2022-12-18T02:37:30;-10.20;47.70
15105;DHT22;7653;48.994;9.212;2022-12-18T02:39:58;-10.10;48.30
15105;DHT22;7653;48.994;9.212;2022-12-18T02:42:25;-10.00;49.50
15105;DHT22;7653;48.994;9.212;2022-12-18T02:44:55;-9.90;49.40
15105;DHT22;7653;48.994;9.212;2022-12-18T02:47:23;-9.90;49.20
15105;DHT22;7653;48.994;9.212;2022-12-18T02:50:05;-10.10;48.70
15105;DHT22;7653;48.994;9.212;2022-12-18T02:58:25;-9.80;50.10
15105;DHT22;7653;48.994;9.212;2022-12-18T03:03:48;-9.70;49.50
15105;DHT22;7653;48.994;9.212;2022-12-18T03:08:47;-9.70;49.30
15105;DHT22;7653;48.994;9.212;2022-12-18T03:11:15;-9.70;49.40
15105;DHT22;7653;48.994;9.212;2022-12-18T03:13:50;-9.70;49.50
15105;DHT22;7653;48.994;9.212;2022-12-18T03:16:24;-9.90;49.10
15105;DHT22;7653;48.994;9.212;2022-12-18T03:21:54;-9.90;49.80
15105;DHT22;7653;48.994;9.212;2022-12-18T03:24:22;-9.80;49.70
15105;DHT22;7653;48.994;9.212;2022-12-18T03:26:53;-9.80;49.30
15105;DHT22;7653;48.994;9.212;2022-12-18T03:29:26;-9.80;49.10
15105;DHT22;7653;48.994;9.212;2022-12-18T03:31:56;-9.90;49.20
15105;DHT22;7653;48.994;9.212;2022-12-18T03:34:32;-10.30;48.40
15105;DHT22;7653;48.994;9.212;2022-12-18T03:37:00;-10.20;49.70
15105;DHT22;7653;48.994;9.212;2022-12-18T03:39:27;-10.10;49.90
15105;DHT22;7653;48.994;9.212;2022-12-18T03:41:55;-10.00;50.30
15105;DHT22;7653;48.994;9.212;2022-12-18T03:47:38;-9.80;50.90
15105;DHT22;7653;48.994;9.212;2022-12-18T03:52:41;-9.80;50.70
15105;DHT22;7653;48.994;9.212;2022-12-18T03:55:09;-9.80;51.40
15105;DHT22;7653;48.994;9.212;2022-12-18T03:57:35;-9.80;51.60
15105;DHT22;7653;48.994;9.212;2022-12-18T04:00:11;-9.70;52.00
15105;DHT22;7653;48.994;9.212;2022-12-18T04:02:41;-9.70;52.40
15105;DHT22;7653;48.994;9.212;2022-12-18T04:05:09;-9.70;52.80
15105;DHT22;7653;48.994;9.212;2022-12-18T04:07:36;-9.60;53.60
15105;DHT22;7653;48.994;9.212;2022-12-18T04:10:03;-9.60;53.60
15105;DHT22;7653;48.994;9.212;2022-12-18T04:12:30;-9.60;53.60
15105;DHT22;7653;48.994;9.212;2022-12-18T04:14:56;-9.70;53.60
15105;DHT22;7653;48.994;9.212;2022-12-18T04:17:22;-9.70;53.50
15105;DHT22;7653;48.994;9.212;2022-12-18T04:19:47;-9.70;53.50
15105;DHT22;7653;48.994;9.212;2022-12-18T04:22:13;-9.80;53.40
15105;DHT22;7653;48.994;9.212;2022-12-18T04:24:39;-9.80;53.40
15105;DHT22;7653;48.994;9.212;2022-12-18T04:27:04;-9.80;53.40
15105;DHT22;7653;48.994;9.212;2022-12-18T04:29:32;-9.80;53.40
15105;DHT22;7653;48.994;9.212;2022-12-18T04:31:58;-9.90;53.40
15105;DHT22;7653;48.994;9.212;2022-12-18T04:34:24;-9.80;53.40
15105;DHT22;7653;48.994;9.212;2022-12-18T04:36:49;-9.90;53.40
15105;DHT22;7653;48.994;9.212;2022-12-18T04:39:15;-9.90;53.40
15105;DHT22;7653;48.994;9.212;2022-12-18T04:41:41;-9.90;53.40
15105;DHT22;7653;48.994;9.212;2022-12-18T04:44:06;-9.80;53.40
15105;DHT22;7653;48.994;9.212;2022-12-18T04:46:33;-9.70;53.60
15105;DHT22;7653;48.994;9.212;2022-12-18T04:48:58;-9.80;53.40
15105;DHT22;7653;48.994;9.212;2022-12-18T04:51:24;-9.90;52.80
15105;DHT22;7653;48.994;9.212;2022-12-18T04:53:50;-10.00;51.60
15105;DHT22;7653;48.994;9.212;2022-12-18T04:56:16;-10.00;50.90
15105;DHT22;7653;48.994;9.212;2022-12-18T04:58:43;-10.20;50.60
15105;DHT22;7653;48.994;9.212;2022-12-18T05:01:10;-10.10;50.40
15105;DHT22;7653;48.994;9.212;2022-12-18T05:03:36;-10.20;50.10
15105;DHT22;7653;48.994;9.212;2022-12-18T05:06:03;-10.20;50.50
15105;DHT22;7653;48.994;9.212;2022-12-18T05:08:28;-10.10;50.70
15105;DHT22;7653;48.994;9.212;2022-12-18T05:11:09;-10.10;50.90
15105;DHT22;7653;48.994;9.212;2022-12-18T05:13:35;-10.10;50.80
15105;DHT22;7653;48.994;9.212;2022-12-18T05:16:02;-10.10;51.10
15105;DHT22;7653;48.994;9.212;2022-12-18T05:18:28;-10.00;51.20
15105;DHT22;7653;48.994;9.212;2022-12-18T05:20:54;-10.00;52.20
15105;DHT22;7653;48.994;9.212;2022-12-18T05:23:21;-9.90;53.40
15105;DHT22;7653;48.994;9.212;2022-12-18T05:28:16;-10.00;54.20
15105;DHT22;7653;48.994;9.212;2022-12-18T05:30:42;-9.90;55.60
15105;DHT22;7653;48.994;9.212;2022-12-18T05:33:07;-9.90;55.60
15105;DHT22;7653;48.994;9.212;2022-12-18T05:35:33;-9.90;55.00
15105;DHT22;7653;48.994;9.212;2022-12-18T05:37:58;-9.90;55.00
15105;DHT22;7653;48.994;9.212;2022-12-18T05:40:24;-9.80;54.70
15105;DHT22;7653;48.994;9.212;2022-12-18T05:42:50;-9.90;53.60
15105;DHT22;7653;48.994;9.212;2022-12-18T05:45:15;-10.00;53.30
15105;DHT22;7653;48.994;9.212;2022-12-18T05:47:41;-10.10;52.60
15105;DHT22;7653;48.994;9.212;2022-12-18T05:50:07;-10.10;52.10
15105;DHT22;7653;48.994;9.212;2022-12-18T05:52:33;-10.10;51.90
15105;DHT22;7653;48.994;9.212;2022-12-18T05:54:58;-10.10;52.30
15105;DHT22;7653;48.994;9.212;2022-12-18T05:57:24;-10.00;52.60
15105;DHT22;7653;48.994;9.212;2022-12-18T05:59:50;-10.00;53.10
15105;DHT22;7653;48.994;9.212;2022-12-18T06:02:15;-10.00;53.30
15105;DHT22;7653;48.994;9.212;2022-12-18T06:04:41;-9.90;53.40
15105;DHT22;7653;48.994;9.212;2022-12-18T06:07:07;-9.90;53.40
15105;DHT22;7653;48.994;9.212;2022-12-18T06:09:32;-9.80;53.40
15105;DHT22;7653;48.994;9.212;2022-12-18T06:11:58;-9.90;53.40
15105;DHT22;7653;48.994;9.212;2022-12-18T06:14:23;-9.80;53.40
15105;DHT22;7653;48.994;9.212;2022-12-18T06:16:50;-9.90;53.40
15105;DHT22;7653;48.994;9.212;2022-12-18T06:19:17;-9.90;54.10
15105;DHT22;7653;48.994;9.212;2022-12-18T06:21:43;-9.90;53.10
15105;DHT22;7653;48.994;9.212;2022-12-18T06:24:09;-10.00;52.50
15105;DHT22;7653;48.994;9.212;2022-12-18T06:26:37;-10.00;52.50
15105;DHT22;7653;48.994;9.212;2022-12-18T06:29:03;-10.00;52.10
15105;DHT22;7653;48.994;9.212;2022-12-18T06:31:29;-10.00;52.20
15105;DHT22;7653;48.994;9.212;2022-12-18T06:33:54;-10.10;51.60
15105;DHT22;7653;48.994;9.212;2022-12-18T06:36:20;-10.10;51.30
15105;DHT22;7653;48.994;9.212;2022-12-18T06:38:46;-10.10;51.20
15105;DHT22;7653;48.994;9.212;2022-12-18T06:41:14;-10.10;51.10
15105;DHT22;7653;48.994;9.212;2022-12-18T06:43:40;-10.20;51.10
15105;DHT22;7653;48.994;9.212;2022-12-18T06:46:06;-10.10;51.50
15105;DHT22;7653;48.994;9.212;2022-12-18T06:48:33;-10.10;51.60
15105;DHT22;7653;48.994;9.212;2022-12-18T06:50:58;-10.10;51.40
15105;DHT22;7653;48.994;9.212;2022-12-18T06:53:24;-10.10;51.40
15105;DHT22;7653;48.994;9.212;2022-12-18T06:55:50;-10.00;50.80
15105;DHT22;7653;48.994;9.212;2022-12-18T06:58:16;-10.00;50.60
15105;DHT22;7653;48.994;9.212;2022-12-18T07:00:42;-10.00;50.70
15105;DHT22;7653;48.994;9.212;2022-12-18T07:03:07;-10.00;50.10
15105;DHT22;7653;48.994;9.212;2022-12-18T07:05:33;-10.00;50.10
15105;DHT22;7653;48.994;9.212;2022-12-18T07:07:59;-10.00;50.00
15105;DHT22;7653;48.994;9.212;2022-12-18T07:10:24;-10.00;49.90
15105;DHT22;7653;48.994;9.212;2022-12-18T07:12:50;-10.00;50.30
15105;DHT22;7653;48.994;9.212;2022-12-18T07:15:16;-9.90;50.90
15105;DHT22;7653;48.994;9.212;2022-12-18T07:17:42;-9.90;49.40
15105;DHT22;7653;48.994;9.212;2022-12-18T07:20:08;-9.90;49.60
15105;DHT22;7653;48.994;9.212;2022-12-18T07:22:33;-9.90;49.40
15105;DHT22;7653;48.994;9.212;2022-12-18T07:24:59;-10.00;49.60
15105;DHT22;7653;48.994;9.212;2022-12-18T07:27:25;-10.00;50.00
15105;DHT22;7653;48.994;9.212;2022-12-18T07:29:50;-9.90;50.20
15105;DHT22;7653;48.994;9.212;2022-12-18T07:32:16;-10.00;50.20
15105;DHT22;7653;48.994;9.212;2022-12-18T07:34:42;-10.00;50.30
15105;DHT22;7653;48.994;9.212;2022-12-18T07:37:07;-10.00;50.20
15105;DHT22;7653;48.994;9.212;2022-12-18T07:39:33;-10.00;49.40
15105;DHT22;7653;48.994;9.212;2022-12-18T07:41:58;-10.10;49.00
15105;DHT22;7653;48.994;9.212;2022-12-18T07:44:42;-10.10;49.10
15105;DHT22;7653;48.994;9.212;2022-12-18T07:47:08;-10.10;48.70
15105;DHT22;7653;48.994;9.212;2022-12-18T07:49:34;-10.00;48.90
15105;DHT22;7653;48.994;9.212;2022-12-18T07:51:59;-9.90;50.00
15105;DHT22;7653;48.994;9.212;2022-12-18T07:54:25;-9.80;50.80
15105;DHT22;7653;48.994;9.212;2022-12-18T07:56:51;-9.70;51.30
15105;DHT22;7653;48.994;9.212;2022-12-18T07:59:18;-9.70;50.90
15105;DHT22;7653;48.994;9.212;2022-12-18T08:01:44;-9.90;49.80
15105;DHT22;7653;48.994;9.212;2022-12-18T08:04:09;-9.90;49.70
15105;DHT22;7653;48.994;9.212;2022-12-18T08:06:35;-10.10;49.90
15105;DHT22;7653;48.994;9.212;2022-12-18T08:09:01;-10.20;49.70
15105;DHT22;7653;48.994;9.212;2022-12-18T08:11:28;-10.10;50.40
15105;DHT22;7653;48.994;9.212;2022-12-18T08:13:54;-9.90;50.50
15105;DHT22;7653;48.994;9.212;2022-12-18T08:16:20;-9.90;50.30
15105;DHT22;7653;48.994;9.212;2022-12-18T08:18:47;-9.90;49.60
15105;DHT22;7653;48.994;9.212;2022-12-18T08:21:18;-9.80;49.30
15105;DHT22;7653;48.994;9.212;2022-12-18T08:23:44;-9.70;49.30
15105;DHT22;7653;48.994;9.212;2022-12-18T08:26:12;-9.70;49.00
15105;DHT22;7653;48.994;9.212;2022-12-18T08:28:39;-9.60;48.70
15105;DHT22;7653;48.994;9.212;2022-12-18T08:31:05;-9.50;48.80
15105;DHT22;7653;48.994;9.212;2022-12-18T08:33:32;-9.30;49.30
15105;DHT22;7653;48.994;9.212;2022-12-18T08:35:58;-9.20;50.00
15105;DHT22;7653;48.994;9.212;2022-12-18T08:38:24;-9.10;50.00
15105;DHT22;7653;48.994;9.212;2022-12-18T08:40:54;-8.90;50.20
15105;DHT22;7653;48.994;9.212;2022-12-18T08:43:19;-8.90;49.70
15105;DHT22;7653;48.994;9.212;2022-12-18T08:46:03;-8.90;50.60
15105;DHT22;7653;48.994;9.212;2022-12-18T08:48:30;-8.90;50.70
15105;DHT22;7653;48.994;9.212;2022-12-18T08:50:56;-8.80;51.30
15105;DHT22;7653;48.994;9.212;2022-12-18T08:53:22;-8.60;52.20
15105;DHT22;7653;48.994;9.212;2022-12-18T08:55:48;-8.50;52.30
15105;DHT22;7653;48.994;9.212;2022-12-18T08:58:13;-8.40;52.30
15105;DHT22;7653;48.994;9.212;2022-12-18T09:00:39;-8.30;52.30
15105;DHT22;7653;48.994;9.212;2022-12-18T09:03:04;-8.30;52.20
15105;DHT22;7653;48.994;9.212;2022-12-18T09:05:30;-8.20;52.30
15105;DHT22;7653;48.994;9.212;2022-12-18T09:07:56;-8.10;52.50
15105;DHT22;7653;48.994;9.212;2022-12-18T09:10:21;-8.00;52.80
15105;DHT22;7653;48.994;9.212;2022-12-18T09:12:47;-7.90;53.50
15105;DHT22;7653;48.994;9.212;2022-12-18T09:15:16;-7.80;55.20
15105;DHT22;7653;48.994;9.212;2022-12-18T09:17:42;-7.70;55.30
15105;DHT22;7653;48.994;9.212;2022-12-18T09:20:08;-7.60;56.70
15105;DHT22;7653;48.994;9.212;2022-12-18T09:22:33;-7.60;57.50
15105;DHT22;7653;48.994;9.212;2022-12-18T09:24:59;-7.50;57.30
15105;DHT22;7653;48.994;9.212;2022-12-18T09:27:24;-7.40;57.30
15105;DHT22;7653;48.994;9.212;2022-12-18T09:29:50;-7.40;56.80
15105;DHT22;7653;48.994;9.212;2022-12-18T09:32:16;-7.30;57.00
15105;DHT22;7653;48.994;9.212;2022-12-18T09:34:42;-7.30;57.30
15105;DHT22;7653;48.994;9.212;2022-12-18T09:37:08;-7.20;57.50
15105;DHT22;7653;48.994;9.212;2022-12-18T09:39:36;-7.00;57.60
15105;DHT22;7653;48.994;9.212;2022-12-18T09:42:01;-6.90;57.60
15105;DHT22;7653;48.994;9.212;2022-12-18T09:44:42;-6.70;57.50
15105;DHT22;7653;48.994;9.212;2022-12-18T09:47:25;-6.60;56.10
15105;DHT22;7653;48.994;9.212;2022-12-18T09:49:56;-6.60;56.10
15105;DHT22;7653;48.994;9.212;2022-12-18T09:52:33;-6.60;56.10
15105;DHT22;7653;48.994;9.212;2022-12-18T09:55:05;-6.60;56.10
15105;DHT22;7653;48.994;9.212;2022-12-18T09:57:33;-6.60;56.60
15105;DHT22;7653;48.994;9.212;2022-12-18T10:00:21;-6.60;57.30
15105;DHT22;7653;48.994;9.212;2022-12-18T10:02:49;-6.30;58.40
15105;DHT22;7653;48.994;9.212;2022-12-18T10:05:26;-6.10;58.00
15105;DHT22;7653;48.994;9.212;2022-12-18T10:16:13;-5.90;56.70
15105;DHT22;7653;48.994;9.212;2022-12-18T10:21:37;-5.60;57.70
15105;DHT22;7653;48.994;9.212;2022-12-18T10:26:49;-5.30;57.20
15105;DHT22;7653;48.994;9.212;2022-12-18T10:29:16;-5.20;57.30
15105;DHT22;7653;48.994;9.212;2022-12-18T10:31:42;-5.10;56.20
15105;DHT22;7653;48.994;9.212;2022-12-18T10:34:27;-5.00;55.30
15105;DHT22;7653;48.994;9.212;2022-12-18T10:36:53;-4.90;55.00
15105;DHT22;7653;48.994;9.212;2022-12-18T10:39:21;-4.70;54.80
15105;DHT22;7653;48.994;9.212;2022-12-18T10:41:49;-4.50;54.90
15105;DHT22;7653;48.994;9.212;2022-12-18T10:46:53;-4.60;54.90
15105;DHT22;7653;48.994;9.212;2022-12-18T10:49:30;-4.50;56.10
15105;DHT22;7653;48.994;9.212;2022-12-18T10:52:13;-4.20;56.20
15105;DHT22;7653;48.994;9.212;2022-12-18T10:57:38;-3.90;55.20
15105;DHT22;7653;48.994;9.212;2022-12-18T11:00:24;-3.80;56.20
15105;DHT22;7653;48.994;9.212;2022-12-18T11:02:51;-3.50;55.60
15105;DHT22;7653;48.994;9.212;2022-12-18T11:07:52;-3.30;55.10
15105;DHT22;7653;48.994;9.212;2022-12-18T11:10:21;-3.10;55.20
15105;DHT22;7653;48.994;9.212;2022-12-18T11:12:48;-3.00;54.10
15105;DHT22;7653;48.994;9.212;2022-12-18T11:15:27;-2.90;53.70
15105;DHT22;7653;48.994;9.212;2022-12-18T11:17:55;-3.00;52.00
15105;DHT22;7653;48.994;9.212;2022-12-18T11:20:23;-3.00;53.10
15105;DHT22;7653;48.994;9.212;2022-12-18T11:22:56;-2.90;53.40
15105;DHT22;7653;48.994;9.212;2022-12-18T11:25:22;-2.70;52.40
15105;DHT22;7653;48.994;9.212;2022-12-18T11:27:51;-2.70;52.20
15105;DHT22;7653;48.994;9.212;2022-12-18T11:30:27;-2.60;50.70
15105;DHT22;7653;48.994;9.212;2022-12-18T11:35:50;-2.80;50.10
15105;DHT22;7653;48.994;9.212;2022-12-18T11:38:26;-2.80;51.10
15105;DHT22;7653;48.994;9.212;2022-12-18T11:43:53;-2.60;49.30
15105;DHT22;7653;48.994;9.212;2022-12-18T11:46:33;-2.70;50.20
15105;DHT22;7653;48.994;9.212;2022-12-18T11:49:07;-2.60;49.20
15105;DHT22;7653;48.994;9.212;2022-12-18T11:51:53;-2.70;50.20
15105;DHT22;7653;48.994;9.212;2022-12-18T11:54:20;-2.40;50.50
15105;DHT22;7653;48.994;9.212;2022-12-18T11:57:02;-2.30;50.40
15105;DHT22;7653;48.994;9.212;2022-12-18T12:07:37;-1.90;47.40
15105;DHT22;7653;48.994;9.212;2022-12-18T12:10:48;-1.90;48.80
15105;DHT22;7653;48.994;9.212;2022-12-18T12:21:43;-1.50;47.10
15105;DHT22;7653;48.994;9.212;2022-12-18T12:24:42;-1.30;46.20
15105;DHT22;7653;48.994;9.212;2022-12-18T12:30:04;-1.10;46.10
15105;DHT22;7653;48.994;9.212;2022-12-18T12:32:49;-1.10;45.30
15105;DHT22;7653;48.994;9.212;2022-12-18T12:35:43;-1.00;43.90
15105;DHT22;7653;48.994;9.212;2022-12-18T12:38:34;-1.00;43.30
15105;DHT22;7653;48.994;9.212;2022-12-18T12:41:09;-1.10;43.90
15105;DHT22;7653;48.994;9.212;2022-12-18T12:44:00;-0.90;43.60
15105;DHT22;7653;48.994;9.212;2022-12-18T12:46:27;-1.00;44.00
15105;DHT22;7653;48.994;9.212;2022-12-18T12:48:57;-0.70;43.80
15105;DHT22;7653;48.994;9.212;2022-12-18T12:51:29;-0.60;42.50
15105;DHT22;7653;48.994;9.212;2022-12-18T12:53:59;-0.50;42.60
15105;DHT22;7653;48.994;9.212;2022-12-18T12:59:27;-0.50;42.00
15105;DHT22;7653;48.994;9.212;2022-12-18T13:04:45;-0.60;41.60
15105;DHT22;7653;48.994;9.212;2022-12-18T13:07:24;-0.50;41.70
15105;DHT22;7653;48.994;9.212;2022-12-18T13:13:05;-0.40;40.60
15105;DHT22;7653;48.994;9.212;2022-12-18T13:18:28;-0.40;39.70
15105;DHT22;7653;48.994;9.212;2022-12-18T13:32:00;-0.10;41.00
15105;DHT22;7653;48.994;9.212;2022-12-18T13:36:44;0.10;38.10
15105;DHT22;7653;48.994;9.212;2022-12-18T13:41:48;0.20;37.70
15105;DHT22;7653;48.994;9.212;2022-12-18T13:46:59;0.40;36.30
15105;DHT22;7653;48.994;9.212;2022-12-18T13:49:38;0.00;37.40
15105;DHT22;7653;48.994;9.212;2022-12-18T13:52:34;0.00;37.50
15105;DHT22;7653;48.994;9.212;2022-12-18T13:55:05;-0.20;39.10
15105;DHT22;7653;48.994;9.212;2022-12-18T13:57:38;-0.10;38.20
15105;DHT22;7653;48.994;9.212;2022-12-18T14:02:51;-0.30;37.90
15105;DHT22;7653;48.994;9.212;2022-12-18T14:05:24;-0.40;37.80
15105;DHT22;7653;48.994;9.212;2022-12-18T14:07:52;-0.20;38.50
15105;DHT22;7653;48.994;9.212;2022-12-18T14:10:18;0.00;38.50
15105;DHT22;7653;48.994;9.212;2022-12-18T14:12:48;-0.20;37.30
15105;DHT22;7653;48.994;9.212;2022-12-18T14:16:00;-0.10;38.10
15105;DHT22;7653;48.994;9.212;2022-12-18T14:18:59;0.00;36.20
15105;DHT22;7653;48.994;9.212;2022-12-18T14:21:27;-0.10;37.00
15105;DHT22;7653;48.994;9.212;2022-12-18T14:26:39;-0.20;38.00
15105;DHT22;7653;48.994;9.212;2022-12-18T14:29:24;-0.40;37.60
15105;DHT22;7653;48.994;9.212;2022-12-18T14:32:12;-0.60;38.70
15105;DHT22;7653;48.994;9.212;2022-12-18T14:34:39;-0.50;39.10
15105;DHT22;7653;48.994;9.212;2022-12-18T14:37:07;-0.50;38.80
15105;DHT22;7653;48.994;9.212;2022-12-18T14:39:34;-0.50;39.00
15105;DHT22;7653;48.994;9.212;2022-12-18T14:42:00;-0.50;39.10
15105;DHT22;7653;48.994;9.212;2022-12-18T14:44:25;-0.60;38.70
15105;DHT22;7653;48.994;9.212;2022-12-18T14:46:51;-0.60;39.40
15105;DHT22;7653;48.994;9.212;2022-12-18T14:49:21;-0.80;39.10
15105;DHT22;7653;48.994;9.212;2022-12-18T14:51:50;-1.10;39.80
15105;DHT22;7653;48.994;9.212;2022-12-18T14:54:19;-1.20;41.00
15105;DHT22;7653;48.994;9.212;2022-12-18T14:57:01;-1.20;42.00
15105;DHT22;7653;48.994;9.212;2022-12-18T14:59:28;-1.20;42.00
15105;DHT22;7653;48.994;9.212;2022-12-18T15:02:15;-1.30;41.90
15105;DHT22;7653;48.994;9.212;2022-12-18T15:04:44;-1.30;41.90
15105;DHT22;7653;48.994;9.212;2022-12-18T15:07:14;-1.50;41.80
15105;DHT22;7653;48.994;9.212;2022-12-18T15:10:00;-1.50;42.30
15105;DHT22;7653;48.994;9.212;2022-12-18T15:15:03;-1.50;42.50
15105;DHT22;7653;48.994;9.212;2022-12-18T15:17:30;-1.60;42.80
15105;DHT22;7653;48.994;9.212;2022-12-18T15:20:08;-1.60;42.70
15105;DHT22;7653;48.994;9.212;2022-12-18T15:22:36;-1.70;43.40
15105;DHT22;7653;48.994;9.212;2022-12-18T15:25:31;-1.80;43.90
15105;DHT22;7653;48.994;9.212;2022-12-18T15:27:57;-1.80;44.40
15105;DHT22;7653;48.994;9.212;2022-12-18T15:30:24;-1.80;44.60
15105;DHT22;7653;48.994;9.212;2022-12-18T15:32:51;-1.90;44.90
15105;DHT22;7653;48.994;9.212;2022-12-18T15:37:43;-1.90;45.40
15105;DHT22;7653;48.994;9.212;2022-12-18T15:40:21;-2.00;45.60
15105;DHT22;7653;48.994;9.212;2022-12-18T15:42:47;-2.10;45.90
15105;DHT22;7653;48.994;9.212;2022-12-18T15:45:32;-2.10;46.00
15105;DHT22;7653;48.994;9.212;2022-12-18T15:47:58;-2.10;46.00
15105;DHT22;7653;48.994;9.212;2022-12-18T15:50:24;-2.10;46.50
15105;DHT22;7653;48.994;9.212;2022-12-18T15:52:51;-2.10;46.40
15105;DHT22;7653;48.994;9.212;2022-12-18T15:55:21;-2.20;46.60
15105;DHT22;7653;48.994;9.212;2022-12-18T15:58:07;-2.20;46.50
15105;DHT22;7653;48.994;9.212;2022-12-18T16:00:34;-2.20;46.90
15105;DHT22;7653;48.994;9.212;2022-12-18T16:03:01;-2.30;46.90
15105;DHT22;7653;48.994;9.212;2022-12-18T16:05:29;-2.30;47.10
15105;DHT22;7653;48.994;9.212;2022-12-18T16:07:55;-2.30;47.30
15105;DHT22;7653;48.994;9.212;2022-12-18T16:10:21;-2.40;47.50
15105;DHT22;7653;48.994;9.212;2022-12-18T16:12:47;-2.40;47.90
15105;DHT22;7653;48.994;9.212;2022-12-18T16:15:14;-2.50;48.00
15105;DHT22;7653;48.994;9.212;2022-12-18T16:17:42;-2.40;48.40
15105;DHT22;7653;48.994;9.212;2022-12-18T16:20:19;-2.50;48.30
15105;DHT22;7653;48.994;9.212;2022-12-18T16:22:46;-2.60;48.70
15105;DHT22;7653;48.994;9.212;2022-12-18T16:25:26;-2.70;49.50
15105;DHT22;7653;48.994;9.212;2022-12-18T16:27:53;-2.60;49.80
15105;DHT22;7653;48.994;9.212;2022-12-18T16:30:30;-2.60;50.00
15105;DHT22;7653;48.994;9.212;2022-12-18T16:32:57;-2.70;50.00
15105;DHT22;7653;48.994;9.212;2022-12-18T16:35:24;-2.70;50.20
15105;DHT22;7653;48.994;9.212;2022-12-18T16:37:50;-2.70;50.90
15105;DHT22;7653;48.994;9.212;2022-12-18T16:40:16;-2.70;50.30
15105;DHT22;7653;48.994;9.212;2022-12-18T16:42:44;-2.70;50.20
15105;DHT22;7653;48.994;9.212;2022-12-18T16:45:13;-2.70;50.30
15105;DHT22;7653;48.994;9.212;2022-12-18T16:47:40;-2.70;50.20
15105;DHT22;7653;48.994;9.212;2022-12-18T16:50:06;-2.70;50.20
15105;DHT22;7653;48.994;9.212;2022-12-18T16:52:33;-2.70;50.20
15105;DHT22;7653;48.994;9.212;2022-12-18T16:54:59;-2.70;50.80
15105;DHT22;7653;48.994;9.212;2022-12-18T16:57:25;-2.70;50.60
15105;DHT22;7653;48.994;9.212;2022-12-18T16:59:51;-2.70;50.60
15105;DHT22;7653;48.994;9.212;2022-12-18T17:02:20;-2.70;50.60
15105;DHT22;7653;48.994;9.212;2022-12-18T17:04:48;-2.60;50.30
15105;DHT22;7653;48.994;9.212;2022-12-18T17:07:15;-2.60;50.30
15105;DHT22;7653;48.994;9.212;2022-12-18T17:09:43;-2.80;50.40
15105;DHT22;7653;48.994;9.212;2022-12-18T17:12:09;-2.80;51.40
15105;DHT22;7653;48.994;9.212;2022-12-18T17:14:35;-2.70;51.10
15105;DHT22;7653;48.994;9.212;2022-12-18T17:17:04;-2.70;50.90
15105;DHT22;7653;48.994;9.212;2022-12-18T17:19:30;-2.70;50.40
15105;DHT22;7653;48.994;9.212;2022-12-18T17:21:55;-2.70;50.60
15105;DHT22;7653;48.994;9.212;2022-12-18T17:24:21;-2.80;50.70
15105;DHT22;7653;48.994;9.212;2022-12-18T17:26:47;-2.70;51.20
15105;DHT22;7653;48.994;9.212;2022-12-18T17:29:16;-2.70;50.80
15105;DHT22;7653;48.994;9.212;2022-12-18T17:31:41;-2.70;50.60
15105;DHT22;7653;48.994;9.212;2022-12-18T17:34:09;-2.70;50.20
15105;DHT22;7653;48.994;9.212;2022-12-18T17:36:36;-2.70;51.40
15105;DHT22;7653;48.994;9.212;2022-12-18T17:39:04;-2.70;50.30
15105;DHT22;7653;48.994;9.212;2022-12-18T17:41:30;-2.70;50.90
15105;DHT22;7653;48.994;9.212;2022-12-18T17:43:59;-2.80;51.10
15105;DHT22;7653;48.994;9.212;2022-12-18T17:46:26;-2.80;51.10
15105;DHT22;7653;48.994;9.212;2022-12-18T17:48:54;-2.70;51.20
15105;DHT22;7653;48.994;9.212;2022-12-18T17:51:20;-2.70;51.10
15105;DHT22;7653;48.994;9.212;2022-12-18T17:53:46;-2.90;52.00
15105;DHT22;7653;48.994;9.212;2022-12-18T17:56:14;-2.90;52.20
15105;DHT22;7653;48.994;9.212;2022-12-18T17:58:41;-2.90;52.50
15105;DHT22;7653;48.994;9.212;2022-12-18T18:01:06;-2.80;52.90
15105;DHT22;7653;48.994;9.212;2022-12-18T18:03:33;-2.80;52.40
15105;DHT22;7653;48.994;9.212;2022-12-18T18:06:03;-2.80;52.30